sensor_id;sensor_type;location;lat;lon;timestamp;P1;durP1;ratioP1;P2;durP2;ratioP2
49688;SDS011;70518;51.400;7.428;2023-08-12T00:02:21;9.27;;;6.30;;
49688;SDS011;70518;51.400;7.428;2023-08-12T00:04:47;7.75;;;5.43;;
49688;SDS011;70518;51.400;7.428;2023-08-12T00:07:12;7.43;;;5.22;;
49688;SDS011;70518;51.400;7.428;2023-08-12T00:09:38;6.65;;;5.78;;
49688;SDS011;70518;51.400;7.428;2023-08-12T00:12:03;9.32;;;5.75;;
49688;SDS011;70518;51.400;7.428;2023-08-12T00:14:29;8.52;;;5.80;;
49688;SDS011;70518;51.400;7.428;2023-08-12T00:16:54;7.43;;;5.13;;
49688;SDS011;70518;51.400;7.428;2023-08-12T00:19:20;8.73;;;5.40;;
49688;SDS011;70518;51.400;7.428;2023-08-12T00:21:45;6.30;;;5.10;;
49688;SDS011;70518;51.400;7.428;2023-08-12T00:24:11;6.22;;;5.22;;
49688;SDS011;70518;51.400;7.428;2023-08-12T00:26:36;9.55;;;5.95;;
49688;SDS011;70518;51.400;7.428;2023-08-12T00:29:01;8.68;;;5.78;;
49688;SDS011;70518;51.400;7.428;2023-08-12T00:31:27;8.95;;;5.63;;
49688;SDS011;70518;51.400;7.428;2023-08-12T00:33:52;9.50;;;6.85;;
49688;SDS011;70518;51.400;7.428;2023-08-12T00:36:18;7.95;;;6.15;;
49688;SDS011;70518;51.400;7.428;2023-08-12T00:38:43;8.40;;;6.88;;
49688;SDS011;70518;51.400;7.428;2023-08-12T00:41:08;8.93;;;7.00;;
49688;SDS011;70518;51.400;7.428;2023-08-12T00:43:34;7.68;;;6.88;;
49688;SDS011;70518;51.400;7.428;2023-08-12T00:45:59;8.90;;;6.50;;
49688;SDS011;70518;51.400;7.428;2023-08-12T00:48:24;8.63;;;7.18;;
49688;SDS011;70518;51.400;7.428;2023-08-12T00:50:50;8.40;;;7.47;;
49688;SDS011;70518;51.400;7.428;2023-08-12T00:53:17;9.85;;;8.40;;
49688;SDS011;70518;51.400;7.428;2023-08-12T00:55:42;9.57;;;8.50;;
49688;SDS011;70518;51.400;7.428;2023-08-12T00:58:08;10.43;;;8.07;;
49688;SDS011;70518;51.400;7.428;2023-08-12T01:00:33;12.27;;;9.02;;
49688;SDS011;70518;51.400;7.428;2023-08-12T01:02:59;10.52;;;8.27;;
49688;SDS011;70518;51.400;7.428;2023-08-12T01:05:25;10.18;;;8.93;;
49688;SDS011;70518;51.400;7.428;2023-08-12T01:07:51;10.68;;;8.95;;
49688;SDS011;70518;51.400;7.428;2023-08-12T01:10:18;11.25;;;9.50;;
49688;SDS011;70518;51.400;7.428;2023-08-12T01:15:51;11.63;;;9.32;;
49688;SDS011;70518;51.400;7.428;2023-08-12T01:18:20;11.40;;;10.07;;
49688;SDS011;70518;51.400;7.428;2023-08-12T01:20:46;10.93;;;9.77;;
49688;SDS011;70518;51.400;7.428;2023-08-12T01:23:13;10.70;;;9.60;;
49688;SDS011;70518;51.400;7.428;2023-08-12T01:25:39;12.73;;;9.82;;
49688;SDS011;70518;51.400;7.428;2023-08-12T01:28:05;14.27;;;10.18;;
49688;SDS011;70518;51.400;7.428;2023-08-12T01:30:30;10.95;;;9.65;;
49688;SDS011;70518;51.400;7.428;2023-08-12T01:35:40;11.48;;;9.77;;
49688;SDS011;70518;51.400;7.428;2023-08-12T01:38:09;13.93;;;10.07;;
49688;SDS011;70518;51.400;7.428;2023-08-12T01:40:36;10.73;;;9.25;;
49688;SDS011;70518;51.400;7.428;2023-08-12T01:43:03;11.52;;;9.75;;
49688;SDS011;70518;51.400;7.428;2023-08-12T01:45:32;10.75;;;9.13;;
49688;SDS011;70518;51.400;7.428;2023-08-12T01:47:58;11.75;;;9.15;;
49688;SDS011;70518;51.400;7.428;2023-08-12T01:50:23;10.85;;;9.63;;
49688;SDS011;70518;51.400;7.428;2023-08-12T01:52:49;11.75;;;10.07;;
49688;SDS011;70518;51.400;7.428;2023-08-12T01:55:14;10.82;;;9.10;;
49688;SDS011;70518;51.400;7.428;2023-08-12T01:57:40;11.68;;;9.52;;
49688;SDS011;70518;51.400;7.428;2023-08-12T02:00:05;10.98;;;9.38;;
49688;SDS011;70518;51.400;7.428;2023-08-12T02:02:31;11.35;;;9.75;;
49688;SDS011;70518;51.400;7.428;2023-08-12T02:04:56;13.15;;;10.15;;
49688;SDS011;70518;51.400;7.428;2023-08-12T02:07:21;11.65;;;9.50;;
49688;SDS011;70518;51.400;7.428;2023-08-12T02:09:47;12.02;;;9.57;;
49688;SDS011;70518;51.400;7.428;2023-08-12T02:12:12;12.85;;;9.38;;
49688;SDS011;70518;51.400;7.428;2023-08-12T02:14:37;9.88;;;8.88;;
49688;SDS011;70518;51.400;7.428;2023-08-12T02:17:03;10.57;;;9.18;;
49688;SDS011;70518;51.400;7.428;2023-08-12T02:19:32;10.80;;;9.65;;
49688;SDS011;70518;51.400;7.428;2023-08-12T02:21:58;9.73;;;8.73;;
49688;SDS011;70518;51.400;7.428;2023-08-12T02:24:24;10.65;;;9.63;;
49688;SDS011;70518;51.400;7.428;2023-08-12T02:26:49;11.60;;;9.65;;
49688;SDS011;70518;51.400;7.428;2023-08-12T02:29:14;9.68;;;8.63;;
49688;SDS011;70518;51.400;7.428;2023-08-12T02:31:40;10.48;;;8.90;;
49688;SDS011;70518;51.400;7.428;2023-08-12T02:34:05;10.43;;;9.38;;
49688;SDS011;70518;51.400;7.428;2023-08-12T02:36:30;11.50;;;9.52;;
49688;SDS011;70518;51.400;7.428;2023-08-12T02:38:56;10.70;;;9.32;;
49688;SDS011;70518;51.400;7.428;2023-08-12T02:41:21;11.07;;;8.90;;
49688;SDS011;70518;51.400;7.428;2023-08-12T02:43:46;10.65;;;9.57;;
49688;SDS011;70518;51.400;7.428;2023-08-12T02:46:12;10.55;;;8.95;;
49688;SDS011;70518;51.400;7.428;2023-08-12T02:48:40;12.20;;;8.95;;
49688;SDS011;70518;51.400;7.428;2023-08-12T02:51:05;9.45;;;8.48;;
49688;SDS011;70518;51.400;7.428;2023-08-12T02:53:30;8.93;;;7.93;;
49688;SDS011;70518;51.400;7.428;2023-08-12T02:55:56;9.30;;;8.40;;
49688;SDS011;70518;51.400;7.428;2023-08-12T02:58:21;9.77;;;8.07;;
49688;SDS011;70518;51.400;7.428;2023-08-12T03:00:46;9.18;;;8.27;;
49688;SDS011;70518;51.400;7.428;2023-08-12T03:03:11;9.55;;;7.82;;
49688;SDS011;70518;51.400;7.428;2023-08-12T03:05:37;10.25;;;8.52;;
49688;SDS011;70518;51.400;7.428;2023-08-12T03:08:02;9.00;;;8.07;;
49688;SDS011;70518;51.400;7.428;2023-08-12T03:10:29;10.25;;;8.13;;
49688;SDS011;70518;51.400;7.428;2023-08-12T03:12:54;9.57;;;8.65;;
49688;SDS011;70518;51.400;7.428;2023-08-12T03:15:20;8.57;;;7.78;;
49688;SDS011;70518;51.400;7.428;2023-08-12T03:17:45;8.40;;;7.60;;
49688;SDS011;70518;51.400;7.428;2023-08-12T03:20:11;9.35;;;8.27;;
49688;SDS011;70518;51.400;7.428;2023-08-12T03:22:36;9.85;;;7.70;;
49688;SDS011;70518;51.400;7.428;2023-08-12T03:25:02;8.65;;;7.82;;
49688;SDS011;70518;51.400;7.428;2023-08-12T03:27:28;8.40;;;7.60;;
49688;SDS011;70518;51.400;7.428;2023-08-12T03:29:53;9.07;;;7.95;;
49688;SDS011;70518;51.400;7.428;2023-08-12T03:32:19;8.80;;;7.40;;
49688;SDS011;70518;51.400;7.428;2023-08-12T03:34:44;8.57;;;7.68;;
49688;SDS011;70518;51.400;7.428;2023-08-12T03:37:09;9.10;;;8.20;;
49688;SDS011;70518;51.400;7.428;2023-08-12T03:39:35;9.05;;;7.03;;
49688;SDS011;70518;51.400;7.428;2023-08-12T03:42:00;8.55;;;7.75;;
49688;SDS011;70518;51.400;7.428;2023-08-12T03:44:25;7.63;;;6.93;;
49688;SDS011;70518;51.400;7.428;2023-08-12T03:46:51;7.82;;;6.95;;
49688;SDS011;70518;51.400;7.428;2023-08-12T03:49:16;8.80;;;7.90;;
49688;SDS011;70518;51.400;7.428;2023-08-12T03:51:41;9.68;;;6.95;;
49688;SDS011;70518;51.400;7.428;2023-08-12T03:54:07;8.20;;;7.40;;
49688;SDS011;70518;51.400;7.428;2023-08-12T03:56:32;8.30;;;6.93;;
49688;SDS011;70518;51.400;7.428;2023-08-12T03:58:57;7.95;;;7.15;;
49688;SDS011;70518;51.400;7.428;2023-08-12T04:01:22;7.75;;;6.70;;
49688;SDS011;70518;51.400;7.428;2023-08-12T04:03:48;8.98;;;7.15;;
49688;SDS011;70518;51.400;7.428;2023-08-12T04:06:13;8.07;;;7.28;;
49688;SDS011;70518;51.400;7.428;2023-08-12T04:08:39;8.43;;;6.88;;
49688;SDS011;70518;51.400;7.428;2023-08-12T04:11:04;7.43;;;6.63;;
49688;SDS011;70518;51.400;7.428;2023-08-12T04:13:29;7.68;;;6.28;;
49688;SDS011;70518;51.400;7.428;2023-08-12T04:15:55;8.15;;;7.15;;
49688;SDS011;70518;51.400;7.428;2023-08-12T04:18:20;7.20;;;6.53;;
49688;SDS011;70518;51.400;7.428;2023-08-12T04:20:46;8.60;;;7.80;;
49688;SDS011;70518;51.400;7.428;2023-08-12T04:23:13;7.70;;;6.90;;
49688;SDS011;70518;51.400;7.428;2023-08-12T04:25:38;8.02;;;7.22;;
49688;SDS011;70518;51.400;7.428;2023-08-12T04:28:04;7.90;;;6.90;;
49688;SDS011;70518;51.400;7.428;2023-08-12T04:30:29;8.00;;;7.20;;
49688;SDS011;70518;51.400;7.428;2023-08-12T04:32:54;8.38;;;6.88;;
49688;SDS011;70518;51.400;7.428;2023-08-12T04:35:19;8.15;;;6.95;;
49688;SDS011;70518;51.400;7.428;2023-08-12T04:37:45;8.00;;;7.20;;
49688;SDS011;70518;51.400;7.428;2023-08-12T04:40:10;9.20;;;6.97;;
49688;SDS011;70518;51.400;7.428;2023-08-12T04:42:36;6.80;;;6.10;;
49688;SDS011;70518;51.400;7.428;2023-08-12T04:45:01;7.97;;;7.22;;
49688;SDS011;70518;51.400;7.428;2023-08-12T04:47:28;8.23;;;7.10;;
49688;SDS011;70518;51.400;7.428;2023-08-12T04:49:54;7.72;;;6.97;;
49688;SDS011;70518;51.400;7.428;2023-08-12T04:52:19;7.22;;;6.18;;
49688;SDS011;70518;51.400;7.428;2023-08-12T04:54:45;8.27;;;6.38;;
49688;SDS011;70518;51.400;7.428;2023-08-12T04:57:11;7.45;;;6.45;;
49688;SDS011;70518;51.400;7.428;2023-08-12T04:59:36;10.13;;;7.22;;
49688;SDS011;70518;51.400;7.428;2023-08-12T05:02:02;7.25;;;6.55;;
49688;SDS011;70518;51.400;7.428;2023-08-12T05:04:27;7.07;;;6.38;;
49688;SDS011;70518;51.400;7.428;2023-08-12T05:06:52;8.23;;;7.28;;
49688;SDS011;70518;51.400;7.428;2023-08-12T05:09:18;7.18;;;6.47;;
49688;SDS011;70518;51.400;7.428;2023-08-12T05:11:43;7.40;;;6.60;;
49688;SDS011;70518;51.400;7.428;2023-08-12T05:14:08;7.70;;;6.82;;
49688;SDS011;70518;51.400;7.428;2023-08-12T05:16:34;7.18;;;6.57;;
49688;SDS011;70518;51.400;7.428;2023-08-12T05:18:59;7.30;;;6.60;;
49688;SDS011;70518;51.400;7.428;2023-08-12T05:21:24;6.82;;;6.13;;
49688;SDS011;70518;51.400;7.428;2023-08-12T05:23:50;9.02;;;6.88;;
49688;SDS011;70518;51.400;7.428;2023-08-12T05:26:15;8.05;;;7.25;;
49688;SDS011;70518;51.400;7.428;2023-08-12T05:28:40;6.78;;;6.10;;
49688;SDS011;70518;51.400;7.428;2023-08-12T05:31:07;7.47;;;6.00;;
49688;SDS011;70518;51.400;7.428;2023-08-12T05:33:32;6.93;;;5.95;;
49688;SDS011;70518;51.400;7.428;2023-08-12T05:35:58;6.82;;;6.22;;
49688;SDS011;70518;51.400;7.428;2023-08-12T05:38:23;7.80;;;5.97;;
49688;SDS011;70518;51.400;7.428;2023-08-12T05:40:48;6.85;;;6.25;;
49688;SDS011;70518;51.400;7.428;2023-08-12T05:43:14;6.75;;;6.15;;
49688;SDS011;70518;51.400;7.428;2023-08-12T05:45:39;6.95;;;6.10;;
49688;SDS011;70518;51.400;7.428;2023-08-12T05:48:04;8.05;;;6.18;;
49688;SDS011;70518;51.400;7.428;2023-08-12T05:50:30;7.10;;;6.40;;
49688;SDS011;70518;51.400;7.428;2023-08-12T05:52:55;6.60;;;5.95;;
49688;SDS011;70518;51.400;7.428;2023-08-12T05:55:21;6.32;;;5.72;;
49688;SDS011;70518;51.400;7.428;2023-08-12T05:57:47;6.30;;;5.78;;
49688;SDS011;70518;51.400;7.428;2023-08-12T06:00:12;7.25;;;5.60;;
49688;SDS011;70518;51.400;7.428;2023-08-12T06:02:38;8.40;;;6.28;;
49688;SDS011;70518;51.400;7.428;2023-08-12T06:05:03;4.93;;;4.53;;
49688;SDS011;70518;51.400;7.428;2023-08-12T06:07:29;5.72;;;5.03;;
49688;SDS011;70518;51.400;7.428;2023-08-12T06:09:54;5.70;;;5.28;;
49688;SDS011;70518;51.400;7.428;2023-08-12T06:12:19;5.20;;;4.70;;
49688;SDS011;70518;51.400;7.428;2023-08-12T06:14:45;5.00;;;4.60;;
49688;SDS011;70518;51.400;7.428;2023-08-12T06:17:10;4.72;;;4.30;;
49688;SDS011;70518;51.400;7.428;2023-08-12T06:19:35;4.57;;;4.18;;
49688;SDS011;70518;51.400;7.428;2023-08-12T06:22:01;4.72;;;4.25;;
49688;SDS011;70518;51.400;7.428;2023-08-12T06:24:26;4.85;;;4.45;;
49688;SDS011;70518;51.400;7.428;2023-08-12T06:26:51;4.88;;;3.30;;
49688;SDS011;70518;51.400;7.428;2023-08-12T06:29:17;6.00;;;3.60;;
49688;SDS011;70518;51.400;7.428;2023-08-12T06:31:42;4.72;;;3.88;;
49688;SDS011;70518;51.400;7.428;2023-08-12T06:34:07;3.80;;;3.42;;
49688;SDS011;70518;51.400;7.428;2023-08-12T06:36:32;4.15;;;3.00;;
49688;SDS011;70518;51.400;7.428;2023-08-12T06:38:58;4.15;;;3.10;;
49688;SDS011;70518;51.400;7.428;2023-08-12T06:41:23;4.50;;;2.80;;
49688;SDS011;70518;51.400;7.428;2023-08-12T06:43:49;3.22;;;2.78;;
49688;SDS011;70518;51.400;7.428;2023-08-12T06:46:14;3.75;;;2.20;;
49688;SDS011;70518;51.400;7.428;2023-08-12T06:48:39;3.70;;;2.30;;
49688;SDS011;70518;51.400;7.428;2023-08-12T06:51:04;3.50;;;1.75;;
49688;SDS011;70518;51.400;7.428;2023-08-12T06:56:00;3.75;;;1.60;;
49688;SDS011;70518;51.400;7.428;2023-08-12T06:58:26;2.63;;;1.77;;
49688;SDS011;70518;51.400;7.428;2023-08-12T07:00:52;2.40;;;1.67;;
49688;SDS011;70518;51.400;7.428;2023-08-12T07:03:18;2.42;;;1.50;;
49688;SDS011;70518;51.400;7.428;2023-08-12T07:05:43;2.70;;;1.60;;
49688;SDS011;70518;51.400;7.428;2023-08-12T07:08:09;2.03;;;1.42;;
49688;SDS011;70518;51.400;7.428;2023-08-12T07:10:34;2.80;;;1.40;;
49688;SDS011;70518;51.400;7.428;2023-08-12T07:13:03;3.55;;;1.30;;
49688;SDS011;70518;51.400;7.428;2023-08-12T07:15:28;2.35;;;1.30;;
49688;SDS011;70518;51.400;7.428;2023-08-12T07:17:54;3.60;;;1.48;;
49688;SDS011;70518;51.400;7.428;2023-08-12T07:20:19;2.17;;;1.38;;
49688;SDS011;70518;51.400;7.428;2023-08-12T07:22:44;4.15;;;1.23;;
49688;SDS011;70518;51.400;7.428;2023-08-12T07:25:10;3.35;;;1.52;;
49688;SDS011;70518;51.400;7.428;2023-08-12T07:27:35;1.83;;;1.40;;
49688;SDS011;70518;51.400;7.428;2023-08-12T07:30:00;2.55;;;1.38;;
49688;SDS011;70518;51.400;7.428;2023-08-12T07:32:26;3.53;;;1.52;;
49688;SDS011;70518;51.400;7.428;2023-08-12T07:34:51;1.90;;;1.15;;
49688;SDS011;70518;51.400;7.428;2023-08-12T07:37:16;4.05;;;1.33;;
49688;SDS011;70518;51.400;7.428;2023-08-12T07:39:41;2.45;;;0.90;;
49688;SDS011;70518;51.400;7.428;2023-08-12T07:42:07;3.00;;;1.00;;
49688;SDS011;70518;51.400;7.428;2023-08-12T07:44:32;2.10;;;1.20;;
49688;SDS011;70518;51.400;7.428;2023-08-12T07:46:57;4.00;;;1.38;;
49688;SDS011;70518;51.400;7.428;2023-08-12T07:49:23;2.50;;;1.10;;
49688;SDS011;70518;51.400;7.428;2023-08-12T07:51:48;1.60;;;1.05;;
49688;SDS011;70518;51.400;7.428;2023-08-12T07:54:14;2.03;;;1.00;;
49688;SDS011;70518;51.400;7.428;2023-08-12T07:56:39;2.63;;;1.23;;
49688;SDS011;70518;51.400;7.428;2023-08-12T07:59:04;2.15;;;1.17;;
49688;SDS011;70518;51.400;7.428;2023-08-12T08:01:29;2.75;;;1.35;;
49688;SDS011;70518;51.400;7.428;2023-08-12T08:03:55;2.08;;;1.10;;
49688;SDS011;70518;51.400;7.428;2023-08-12T08:06:21;1.75;;;1.00;;
49688;SDS011;70518;51.400;7.428;2023-08-12T08:08:48;3.70;;;0.98;;
49688;SDS011;70518;51.400;7.428;2023-08-12T08:11:14;2.00;;;0.73;;
49688;SDS011;70518;51.400;7.428;2023-08-12T08:13:39;1.55;;;0.90;;
49688;SDS011;70518;51.400;7.428;2023-08-12T08:16:04;2.92;;;0.88;;
49688;SDS011;70518;51.400;7.428;2023-08-12T08:18:29;1.48;;;0.80;;
49688;SDS011;70518;51.400;7.428;2023-08-12T08:20:55;4.40;;;0.90;;
49688;SDS011;70518;51.400;7.428;2023-08-12T08:23:20;1.52;;;0.70;;
49688;SDS011;70518;51.400;7.428;2023-08-12T08:25:45;1.65;;;0.90;;
49688;SDS011;70518;51.400;7.428;2023-08-12T08:28:11;2.25;;;0.80;;
49688;SDS011;70518;51.400;7.428;2023-08-12T08:30:36;1.98;;;0.88;;
49688;SDS011;70518;51.400;7.428;2023-08-12T08:33:02;2.95;;;0.90;;
49688;SDS011;70518;51.400;7.428;2023-08-12T08:35:27;1.60;;;0.70;;
49688;SDS011;70518;51.400;7.428;2023-08-12T08:37:53;2.35;;;1.15;;
49688;SDS011;70518;51.400;7.428;2023-08-12T08:40:18;1.48;;;0.73;;
49688;SDS011;70518;51.400;7.428;2023-08-12T08:42:43;2.45;;;1.10;;
49688;SDS011;70518;51.400;7.428;2023-08-12T08:45:12;1.50;;;0.90;;
49688;SDS011;70518;51.400;7.428;2023-08-12T08:47:39;2.95;;;0.90;;
49688;SDS011;70518;51.400;7.428;2023-08-12T08:50:08;1.75;;;0.90;;
49688;SDS011;70518;51.400;7.428;2023-08-12T08:52:35;2.42;;;0.90;;
49688;SDS011;70518;51.400;7.428;2023-08-12T08:55:03;1.25;;;0.90;;
49688;SDS011;70518;51.400;7.428;2023-08-12T08:57:29;1.60;;;0.70;;
49688;SDS011;70518;51.400;7.428;2023-08-12T08:59:54;1.38;;;0.70;;
49688;SDS011;70518;51.400;7.428;2023-08-12T09:02:20;1.10;;;0.70;;
49688;SDS011;70518;51.400;7.428;2023-08-12T09:04:46;1.20;;;0.80;;
49688;SDS011;70518;51.400;7.428;2023-08-12T09:07:12;1.30;;;0.60;;
49688;SDS011;70518;51.400;7.428;2023-08-12T09:09:42;1.00;;;0.77;;
49688;SDS011;70518;51.400;7.428;2023-08-12T09:12:13;2.50;;;0.63;;
49688;SDS011;70518;51.400;7.428;2023-08-12T09:14:40;1.00;;;0.60;;
49688;SDS011;70518;51.400;7.428;2023-08-12T09:17:06;1.10;;;0.70;;
49688;SDS011;70518;51.400;7.428;2023-08-12T09:19:32;1.20;;;0.75;;
49688;SDS011;70518;51.400;7.428;2023-08-12T09:21:57;1.08;;;0.70;;
49688;SDS011;70518;51.400;7.428;2023-08-12T09:24:23;0.70;;;0.60;;
49688;SDS011;70518;51.400;7.428;2023-08-12T09:26:52;1.50;;;0.60;;
49688;SDS011;70518;51.400;7.428;2023-08-12T09:29:21;2.08;;;0.60;;
49688;SDS011;70518;51.400;7.428;2023-08-12T09:32:12;2.42;;;0.60;;
49688;SDS011;70518;51.400;7.428;2023-08-12T09:34:46;0.88;;;0.65;;
49688;SDS011;70518;51.400;7.428;2023-08-12T09:37:13;1.20;;;0.60;;
49688;SDS011;70518;51.400;7.428;2023-08-12T09:39:38;1.23;;;0.70;;
49688;SDS011;70518;51.400;7.428;2023-08-12T09:42:04;0.82;;;0.50;;
49688;SDS011;70518;51.400;7.428;2023-08-12T09:44:30;0.75;;;0.52;;
49688;SDS011;70518;51.400;7.428;2023-08-12T09:46:56;0.80;;;0.50;;
49688;SDS011;70518;51.400;7.428;2023-08-12T09:49:22;0.70;;;0.50;;
49688;SDS011;70518;51.400;7.428;2023-08-12T09:51:48;0.90;;;0.70;;
49688;SDS011;70518;51.400;7.428;2023-08-12T09:54:13;1.20;;;0.73;;
49688;SDS011;70518;51.400;7.428;2023-08-12T09:56:39;0.90;;;0.50;;
49688;SDS011;70518;51.400;7.428;2023-08-12T09:59:06;1.98;;;0.57;;
49688;SDS011;70518;51.400;7.428;2023-08-12T10:01:33;0.90;;;0.60;;
49688;SDS011;70518;51.400;7.428;2023-08-12T10:04:00;1.77;;;0.60;;
49688;SDS011;70518;51.400;7.428;2023-08-12T10:06:26;2.10;;;0.70;;
49688;SDS011;70518;51.400;7.428;2023-08-12T10:08:52;0.95;;;0.57;;
49688;SDS011;70518;51.400;7.428;2023-08-12T10:11:18;1.48;;;0.52;;
49688;SDS011;70518;51.400;7.428;2023-08-12T10:13:43;0.90;;;0.60;;
49688;SDS011;70518;51.400;7.428;2023-08-12T10:16:10;0.60;;;0.40;;
49688;SDS011;70518;51.400;7.428;2023-08-12T10:18:37;1.15;;;0.40;;
49688;SDS011;70518;51.400;7.428;2023-08-12T10:21:05;0.95;;;0.50;;
49688;SDS011;70518;51.400;7.428;2023-08-12T10:23:34;0.60;;;0.40;;
49688;SDS011;70518;51.400;7.428;2023-08-12T10:25:59;0.70;;;0.43;;
49688;SDS011;70518;51.400;7.428;2023-08-12T10:28:26;1.67;;;0.70;;
49688;SDS011;70518;51.400;7.428;2023-08-12T10:30:54;1.10;;;0.50;;
49688;SDS011;70518;51.400;7.428;2023-08-12T10:33:20;2.72;;;0.50;;
49688;SDS011;70518;51.400;7.428;2023-08-12T10:35:47;0.60;;;0.40;;
49688;SDS011;70518;51.400;7.428;2023-08-12T10:38:14;0.70;;;0.40;;
49688;SDS011;70518;51.400;7.428;2023-08-12T10:40:43;1.00;;;0.40;;
49688;SDS011;70518;51.400;7.428;2023-08-12T10:43:08;2.50;;;0.43;;
49688;SDS011;70518;51.400;7.428;2023-08-12T10:45:41;1.20;;;0.60;;
49688;SDS011;70518;51.400;7.428;2023-08-12T10:48:17;1.05;;;0.60;;
49688;SDS011;70518;51.400;7.428;2023-08-12T10:50:52;0.40;;;0.40;;
49688;SDS011;70518;51.400;7.428;2023-08-12T10:53:20;0.80;;;0.30;;
49688;SDS011;70518;51.400;7.428;2023-08-12T10:55:54;0.50;;;0.40;;
49688;SDS011;70518;51.400;7.428;2023-08-12T10:58:23;1.63;;;0.55;;
49688;SDS011;70518;51.400;7.428;2023-08-12T11:03:23;1.67;;;0.50;;
49688;SDS011;70518;51.400;7.428;2023-08-12T11:05:49;1.75;;;0.50;;
49688;SDS011;70518;51.400;7.428;2023-08-12T11:08:15;3.00;;;0.43;;
49688;SDS011;70518;51.400;7.428;2023-08-12T11:10:41;1.10;;;0.50;;
49688;SDS011;70518;51.400;7.428;2023-08-12T11:13:08;1.05;;;0.40;;
49688;SDS011;70518;51.400;7.428;2023-08-12T11:15:34;1.00;;;0.60;;
49688;SDS011;70518;51.400;7.428;2023-08-12T11:18:03;0.70;;;0.40;;
49688;SDS011;70518;51.400;7.428;2023-08-12T11:20:33;0.80;;;0.40;;
49688;SDS011;70518;51.400;7.428;2023-08-12T11:23:00;0.82;;;0.40;;
49688;SDS011;70518;51.400;7.428;2023-08-12T11:25:28;0.63;;;0.40;;
49688;SDS011;70518;51.400;7.428;2023-08-12T11:27:54;3.92;;;0.43;;
49688;SDS011;70518;51.400;7.428;2023-08-12T11:30:20;1.42;;;0.40;;
49688;SDS011;70518;51.400;7.428;2023-08-12T11:32:47;0.82;;;0.40;;
49688;SDS011;70518;51.400;7.428;2023-08-12T11:35:15;3.20;;;0.80;;
49688;SDS011;70518;51.400;7.428;2023-08-12T11:37:44;1.50;;;0.60;;
49688;SDS011;70518;51.400;7.428;2023-08-12T11:40:14;1.38;;;0.68;;
49688;SDS011;70518;51.400;7.428;2023-08-12T11:42:41;2.00;;;0.77;;
49688;SDS011;70518;51.400;7.428;2023-08-12T11:45:09;1.13;;;0.65;;
49688;SDS011;70518;51.400;7.428;2023-08-12T11:47:35;1.70;;;0.60;;
49688;SDS011;70518;51.400;7.428;2023-08-12T11:50:02;0.77;;;0.50;;
49688;SDS011;70518;51.400;7.428;2023-08-12T11:52:28;1.20;;;0.60;;
49688;SDS011;70518;51.400;7.428;2023-08-12T11:54:54;0.90;;;0.50;;
49688;SDS011;70518;51.400;7.428;2023-08-12T11:57:21;0.77;;;0.50;;
49688;SDS011;70518;51.400;7.428;2023-08-12T11:59:47;1.48;;;0.47;;
49688;SDS011;70518;51.400;7.428;2023-08-12T12:02:12;2.08;;;0.50;;
49688;SDS011;70518;51.400;7.428;2023-08-12T12:04:38;1.13;;;0.60;;
49688;SDS011;70518;51.400;7.428;2023-08-12T12:07:17;3.30;;;0.60;;
49688;SDS011;70518;51.400;7.428;2023-08-12T12:09:46;4.15;;;0.73;;
49688;SDS011;70518;51.400;7.428;2023-08-12T12:12:15;1.88;;;0.60;;
49688;SDS011;70518;51.400;7.428;2023-08-12T12:14:40;2.35;;;0.70;;
49688;SDS011;70518;51.400;7.428;2023-08-12T12:17:08;1.63;;;0.60;;
49688;SDS011;70518;51.400;7.428;2023-08-12T12:19:39;1.45;;;0.60;;
49688;SDS011;70518;51.400;7.428;2023-08-12T12:22:05;2.05;;;0.60;;
49688;SDS011;70518;51.400;7.428;2023-08-12T12:24:31;2.72;;;0.88;;
49688;SDS011;70518;51.400;7.428;2023-08-12T12:27:09;0.95;;;0.50;;
49688;SDS011;70518;51.400;7.428;2023-08-12T12:29:34;0.70;;;0.50;;
49688;SDS011;70518;51.400;7.428;2023-08-12T12:32:00;1.10;;;0.43;;
49688;SDS011;70518;51.400;7.428;2023-08-12T12:34:25;1.02;;;0.50;;
49688;SDS011;70518;51.400;7.428;2023-08-12T12:36:50;0.80;;;0.50;;
49688;SDS011;70518;51.400;7.428;2023-08-12T12:39:15;0.50;;;0.32;;
49688;SDS011;70518;51.400;7.428;2023-08-12T12:41:41;0.88;;;0.40;;
49688;SDS011;70518;51.400;7.428;2023-08-12T12:44:06;1.95;;;0.50;;
49688;SDS011;70518;51.400;7.428;2023-08-12T12:46:31;0.90;;;0.40;;
49688;SDS011;70518;51.400;7.428;2023-08-12T12:48:56;2.08;;;0.50;;
49688;SDS011;70518;51.400;7.428;2023-08-12T12:51:22;0.63;;;0.40;;
49688;SDS011;70518;51.400;7.428;2023-08-12T12:53:47;1.45;;;0.40;;
49688;SDS011;70518;51.400;7.428;2023-08-12T12:56:12;1.33;;;0.30;;
49688;SDS011;70518;51.400;7.428;2023-08-12T12:58:38;0.70;;;0.30;;
49688;SDS011;70518;51.400;7.428;2023-08-12T13:01:04;0.40;;;0.30;;
49688;SDS011;70518;51.400;7.428;2023-08-12T13:03:30;0.38;;;0.25;;
49688;SDS011;70518;51.400;7.428;2023-08-12T13:05:56;0.60;;;0.20;;
49688;SDS011;70518;51.400;7.428;2023-08-12T13:08:22;0.50;;;0.20;;
49688;SDS011;70518;51.400;7.428;2023-08-12T13:10:47;0.20;;;0.20;;
49688;SDS011;70518;51.400;7.428;2023-08-12T13:13:14;0.90;;;0.20;;
49688;SDS011;70518;51.400;7.428;2023-08-12T13:15:43;0.90;;;0.27;;
49688;SDS011;70518;51.400;7.428;2023-08-12T13:18:09;0.50;;;0.20;;
49688;SDS011;70518;51.400;7.428;2023-08-12T13:20:35;1.80;;;0.20;;
49688;SDS011;70518;51.400;7.428;2023-08-12T13:23:01;0.38;;;0.30;;
49688;SDS011;70518;51.400;7.428;2023-08-12T13:25:30;0.93;;;0.20;;
49688;SDS011;70518;51.400;7.428;2023-08-12T13:27:57;0.80;;;0.20;;
49688;SDS011;70518;51.400;7.428;2023-08-12T13:30:23;1.10;;;0.40;;
49688;SDS011;70518;51.400;7.428;2023-08-12T13:32:49;0.77;;;0.25;;
49688;SDS011;70518;51.400;7.428;2023-08-12T13:35:14;1.13;;;0.25;;
49688;SDS011;70518;51.400;7.428;2023-08-12T13:37:39;0.50;;;0.30;;
49688;SDS011;70518;51.400;7.428;2023-08-12T13:40:05;0.50;;;0.30;;
49688;SDS011;70518;51.400;7.428;2023-08-12T13:42:31;0.47;;;0.30;;
49688;SDS011;70518;51.400;7.428;2023-08-12T13:44:56;0.68;;;0.30;;
49688;SDS011;70518;51.400;7.428;2023-08-12T13:47:21;0.52;;;0.30;;
49688;SDS011;70518;51.400;7.428;2023-08-12T13:49:47;0.40;;;0.30;;
49688;SDS011;70518;51.400;7.428;2023-08-12T13:52:12;0.52;;;0.40;;
49688;SDS011;70518;51.400;7.428;2023-08-12T13:54:37;1.05;;;0.50;;
49688;SDS011;70518;51.400;7.428;2023-08-12T13:57:02;0.80;;;0.60;;
49688;SDS011;70518;51.400;7.428;2023-08-12T13:59:29;0.85;;;0.60;;
49688;SDS011;70518;51.400;7.428;2023-08-12T14:01:54;1.15;;;0.50;;
49688;SDS011;70518;51.400;7.428;2023-08-12T14:04:20;0.80;;;0.60;;
49688;SDS011;70518;51.400;7.428;2023-08-12T14:06:45;0.68;;;0.50;;
49688;SDS011;70518;51.400;7.428;2023-08-12T14:09:11;1.15;;;0.50;;
49688;SDS011;70518;51.400;7.428;2023-08-12T14:11:38;1.05;;;0.60;;
49688;SDS011;70518;51.400;7.428;2023-08-12T14:14:04;1.00;;;0.65;;
49688;SDS011;70518;51.400;7.428;2023-08-12T14:16:29;0.90;;;0.60;;
49688;SDS011;70518;51.400;7.428;2023-08-12T14:18:54;0.90;;;0.70;;
49688;SDS011;70518;51.400;7.428;2023-08-12T14:21:20;1.27;;;0.60;;
49688;SDS011;70518;51.400;7.428;2023-08-12T14:23:45;1.15;;;0.70;;
49688;SDS011;70518;51.400;7.428;2023-08-12T14:26:10;2.03;;;1.00;;
49688;SDS011;70518;51.400;7.428;2023-08-12T14:28:35;1.05;;;0.90;;
49688;SDS011;70518;51.400;7.428;2023-08-12T14:31:01;1.00;;;0.90;;
49688;SDS011;70518;51.400;7.428;2023-08-12T14:33:26;1.42;;;0.77;;
49688;SDS011;70518;51.400;7.428;2023-08-12T14:35:54;1.45;;;0.70;;
49688;SDS011;70518;51.400;7.428;2023-08-12T14:38:22;1.05;;;0.70;;
49688;SDS011;70518;51.400;7.428;2023-08-12T14:40:47;1.20;;;0.80;;
49688;SDS011;70518;51.400;7.428;2023-08-12T14:43:13;0.73;;;0.68;;
49688;SDS011;70518;51.400;7.428;2023-08-12T14:45:38;1.73;;;0.80;;
49688;SDS011;70518;51.400;7.428;2023-08-12T14:48:04;0.95;;;0.80;;
49688;SDS011;70518;51.400;7.428;2023-08-12T14:50:29;2.80;;;0.90;;